Time;durP1;ratioP1;P1;durP2;ratioP2;P2;SDS_P1;SDS_P2;PMS_P1;PMS_P2;Temp;Humidity;BMP_temperature;BMP_pressure;BME280_temperature;BME280_humidity;BME280_pressure;Samples;Min_cycle;Max_cycle;Signal;HPM_P1;HPM_P2
2021/06/22 00:00:08;;;;;;;;;;;12.30;99.90;;;;;;5060862;28;19916;-49
2021/06/22 00:02:33;;;;;;;;;;;12.30;99.90;;;;;;5061387;28;19908;-48
2021/06/22 00:04:58;;;;;;;;;;;12.30;99.90;;;;;;5059721;28;19919;-50
2021/06/22 00:07:24;;;;;;;;;;;12.30;99.90;;;;;;5051283;28;19928;-49
2021/06/22 00:09:49;;;;;;;;;;;12.30;99.90;;;;;;5065066;28;19962;-50
2021/06/22 00:12:15;;;;;;;;;;;12.30;99.90;;;;;;5057998;28;19909;-48
2021/06/22 00:14:41;;;;;;;;;;;12.30;99.90;;;;;;5039650;28;19996;-48
2021/06/22 00:17:06;;;;;;;;;;;12.30;99.90;;;;;;5061965;28;19917;-48
2021/06/22 00:19:32;;;;;;;;;;;12.30;99.90;;;;;;5061683;28;19915;-52
2021/06/22 00:21:57;;;;;;;;;;;12.30;99.90;;;;;;5055374;28;20367;-48
2021/06/22 00:24:23;;;;;;;;;;;12.20;99.90;;;;;;5060936;28;19913;-49
2021/06/22 00:26:48;;;;;;;;;;;12.20;99.90;;;;;;5061216;28;20378;-48
2021/06/22 00:29:16;;;;;;;;;;;12.20;99.90;;;;;;5037222;28;19909;-48
2021/06/22 00:31:41;;;;;;;;;;;12.20;99.90;;;;;;5057613;28;20374;-48
2021/06/22 00:34:07;;;;;;;;;;;12.20;99.90;;;;;;5060296;28;19916;-49
2021/06/22 00:36:32;;;;;;;;;;;12.20;99.90;;;;;;5045199;28;20007;-50
2021/06/22 00:38:58;;;;;;;;;;;12.20;99.90;;;;;;5059306;28;19913;-49
2021/06/22 00:41:23;;;;;;;;;;;12.20;99.90;;;;;;5061254;28;19969;-49
2021/06/22 00:43:49;;;;;;;;;;;12.20;99.90;;;;;;5059561;28;19931;-50
2021/06/22 00:46:14;;;;;;;;;;;12.20;99.90;;;;;;5059499;28;19909;-53
2021/06/22 00:48:39;;;;;;;;;;;12.20;99.90;;;;;;5056172;28;19909;-48
2021/06/22 00:51:05;;;;;;;;;;;12.20;99.90;;;;;;5059794;28;20006;-53
2021/06/22 00:53:31;;;;;;;;;;;12.20;99.90;;;;;;5061761;28;19908;-47
2021/06/22 00:55:57;;;;;;;;;;;12.30;99.90;;;;;;5062279;28;19928;-47
2021/06/22 00:58:22;;;;;;;;;;;12.30;99.90;;;;;;5045646;28;20294;-49
2021/06/22 01:00:48;;;;;;;;;;;12.30;99.90;;;;;;5061349;28;19913;-50
2021/06/22 01:03:13;;;;;;;;;;;12.30;99.90;;;;;;5044177;28;19913;-49
2021/06/22 01:05:39;;;;;;;;;;;12.30;99.90;;;;;;5065094;28;20027;-48
2021/06/22 01:08:04;;;;;;;;;;;12.30;99.90;;;;;;5063242;28;19909;-50
2021/06/22 01:10:30;;;;;;;;;;;12.30;99.90;;;;;;5064540;28;19919;-50
2021/06/22 01:12:56;;;;;;;;;;;12.30;99.90;;;;;;5062408;28;20008;-51
2021/06/22 01:15:23;;;;;;;;;;;12.30;99.90;;;;;;5064100;28;19991;-50
2021/06/22 01:17:58;;;;;;;;;;;12.30;99.90;;;;;;5063477;28;19909;-50
2021/06/22 01:20:29;;;;;;;;;;;12.30;99.90;;;;;;5035240;28;19912;-52
2021/06/22 01:22:55;;;;;;;;;;;12.30;99.90;;;;;;5046465;28;20363;-47
2021/06/22 01:25:20;;;;;;;;;;;12.30;99.90;;;;;;5064298;28;19917;-51
2021/06/22 01:27:46;;;;;;;;;;;12.40;99.90;;;;;;5062873;28;19908;-52
2021/06/22 01:30:12;;;;;;;;;;;12.40;99.90;;;;;;5063578;28;20050;-48
2021/06/22 01:32:37;;;;;;;;;;;12.30;99.90;;;;;;5064093;28;19923;-51
2021/06/22 01:35:03;;;;;;;;;;;12.30;99.90;;;;;;5061136;28;19916;-48
2021/06/22 01:37:29;;;;;;;;;;;12.40;99.90;;;;;;5064143;28;20322;-53
2021/06/22 01:39:54;;;;;;;;;;;12.30;99.90;;;;;;5062285;28;20389;-50
2021/06/22 01:42:20;;;;;;;;;;;12.30;99.90;;;;;;5063830;28;19908;-48
2021/06/22 01:44:47;;;;;;;;;;;12.30;99.90;;;;;;5063242;28;19923;-51
2021/06/22 01:47:13;;;;;;;;;;;12.30;99.90;;;;;;5064027;28;19915;-52
2021/06/22 01:49:39;;;;;;;;;;;12.30;99.90;;;;;;5064154;28;19954;-50
2021/06/22 01:52:04;;;;;;;;;;;12.20;99.90;;;;;;5061584;28;19960;-50
2021/06/22 01:54:30;;;;;;;;;;;12.20;99.90;;;;;;5064126;28;19909;-51
2021/06/22 01:56:57;;;;;;;;;;;12.20;99.90;;;;;;5062268;28;19970;-51
2021/06/22 01:59:23;;;;;;;;;;;12.20;99.90;;;;;;5063697;28;19909;-52
2021/06/22 02:01:48;;;;;;;;;;;12.20;99.90;;;;;;5063268;28;19954;-49
2021/06/22 02:04:16;;;;;;;;;;;12.20;99.90;;;;;;5063815;28;19962;-47
2021/06/22 02:06:42;;;;;;;;;;;12.20;99.90;;;;;;5063303;28;19952;-51
2021/06/22 02:09:07;;;;;;;;;;;12.20;99.90;;;;;;5061282;28;19952;-52
2021/06/22 02:11:33;;;;;;;;;;;12.20;99.90;;;;;;5063526;28;19908;-49
2021/06/22 02:13:58;;;;;;;;;;;12.20;99.90;;;;;;5062078;28;19916;-47
2021/06/22 02:16:24;;;;;;;;;;;12.20;99.90;;;;;;5063308;28;19909;-50
2021/06/22 02:18:49;;;;;;;;;;;12.20;99.90;;;;;;5062880;28;19912;-51
2021/06/22 02:21:15;;;;;;;;;;;12.20;99.90;;;;;;5063553;28;20007;-49
2021/06/22 02:23:40;;;;;;;;;;;12.20;99.90;;;;;;5045653;28;19909;-54
2021/06/22 02:26:06;;;;;;;;;;;12.30;99.90;;;;;;5060737;28;19912;-49
2021/06/22 02:28:32;;;;;;;;;;;12.30;99.90;;;;;;5063357;28;19941;-48
2021/06/22 02:30:58;;;;;;;;;;;12.30;99.90;;;;;;5061786;28;19923;-50
2021/06/22 02:33:24;;;;;;;;;;;12.30;99.90;;;;;;5059434;28;19909;-49
2021/06/22 02:35:50;;;;;;;;;;;12.30;99.90;;;;;;5065300;28;20003;-48
2021/06/22 02:38:16;;;;;;;;;;;12.40;99.90;;;;;;5059466;28;19908;-47
2021/06/22 02:40:41;;;;;;;;;;;12.30;99.90;;;;;;5065282;28;20338;-48
2021/06/22 02:43:07;;;;;;;;;;;12.30;99.90;;;;;;5060118;28;19963;-51
2021/06/22 02:45:34;;;;;;;;;;;12.40;99.90;;;;;;5064712;28;19971;-50
2021/06/22 02:48:00;;;;;;;;;;;12.30;99.90;;;;;;5061425;28;20343;-49
2021/06/22 02:50:25;;;;;;;;;;;12.30;99.90;;;;;;5059053;28;19909;-47
2021/06/22 02:52:51;;;;;;;;;;;12.30;99.90;;;;;;5047562;28;19923;-52
2021/06/22 02:55:20;;;;;;;;;;;12.30;99.90;;;;;;5059187;28;20286;-48
2021/06/22 02:57:46;;;;;;;;;;;12.30;99.90;;;;;;5065487;28;19909;-50
2021/06/22 03:00:12;;;;;;;;;;;12.20;99.90;;;;;;5058966;28;19909;-49
2021/06/22 03:02:38;;;;;;;;;;;12.30;99.90;;;;;;5065071;28;19920;-48
2021/06/22 03:05:04;;;;;;;;;;;12.20;99.90;;;;;;5059924;28;19920;-49
2021/06/22 03:07:30;;;;;;;;;;;12.30;99.90;;;;;;5058743;28;19977;-50
2021/06/22 03:09:55;;;;;;;;;;;12.20;99.90;;;;;;5064876;28;20418;-49
2021/06/22 03:12:21;;;;;;;;;;;12.30;99.90;;;;;;5058562;28;19962;-49
2021/06/22 03:14:46;;;;;;;;;;;12.30;99.90;;;;;;5065219;28;20526;-49
2021/06/22 03:17:11;;;;;;;;;;;12.30;99.90;;;;;;5058146;28;19909;-51
2021/06/22 03:19:37;;;;;;;;;;;12.30;99.90;;;;;;5047093;28;20078;-47
2021/06/22 03:22:02;;;;;;;;;;;12.30;99.90;;;;;;5060613;28;19948;-47
2021/06/22 03:24:28;;;;;;;;;;;12.30;99.90;;;;;;5058466;28;19921;-51
2021/06/22 03:26:53;;;;;;;;;;;12.30;99.90;;;;;;5064598;28;20322;-49
2021/06/22 03:29:20;;;;;;;;;;;12.30;99.90;;;;;;5058424;28;19995;-47
2021/06/22 03:31:45;;;;;;;;;;;12.30;99.90;;;;;;5058332;28;19936;-48
2021/06/22 03:34:11;;;;;;;;;;;12.30;99.90;;;;;;5061101;28;20009;-49
2021/06/22 03:36:36;;;;;;;;;;;12.30;99.90;;;;;;5063267;28;19909;-48
2021/06/22 03:39:03;;;;;;;;;;;12.30;99.90;;;;;;5060339;28;19909;-49
2021/06/22 03:41:30;;;;;;;;;;;12.40;99.90;;;;;;5062867;28;20394;-48
2021/06/22 03:43:56;;;;;;;;;;;12.30;99.90;;;;;;5059361;28;20385;-48
2021/06/22 03:46:21;;;;;;;;;;;12.40;99.90;;;;;;5065219;28;19996;-48
2021/06/22 03:48:47;;;;;;;;;;;12.40;99.90;;;;;;5058675;28;20044;-48
2021/06/22 03:51:13;;;;;;;;;;;12.40;99.90;;;;;;5061840;28;19924;-50
2021/06/22 03:53:38;;;;;;;;;;;12.40;99.90;;;;;;5061160;28;19948;-49
2021/06/22 03:56:07;;;;;;;;;;;12.40;99.90;;;;;;5060426;28;19918;-48
2021/06/22 03:58:33;;;;;;;;;;;12.40;99.90;;;;;;5062955;28;20000;-53
2021/06/22 04:00:59;;;;;;;;;;;12.40;99.90;;;;;;5041383;28;20076;-47
2021/06/22 04:03:24;;;;;;;;;;;12.40;99.90;;;;;;5064525;28;20026;-50
2021/06/22 04:05:50;;;;;;;;;;;12.40;99.90;;;;;;5057932;28;19913;-50
2021/06/22 04:08:15;;;;;;;;;;;12.40;99.90;;;;;;5061602;28;19908;-53
2021/06/22 04:10:41;;;;;;;;;;;12.40;99.90;;;;;;5060227;28;20012;-48
2021/06/22 04:13:06;;;;;;;;;;;12.50;99.90;;;;;;5060392;28;20047;-53
2021/06/22 04:15:32;;;;;;;;;;;12.40;99.90;;;;;;5062074;28;19916;-50
2021/06/22 04:18:05;;;;;;;;;;;12.50;99.90;;;;;;5059326;28;19913;-53
2021/06/22 04:20:30;;;;;;;;;;;12.50;99.90;;;;;;5063779;28;19912;-47
2021/06/22 04:22:56;;;;;;;;;;;12.50;99.90;;;;;;5059141;28;19999;-51
2021/06/22 04:25:22;;;;;;;;;;;12.50;99.90;;;;;;5061171;28;20386;-50
2021/06/22 04:27:47;;;;;;;;;;;12.60;99.90;;;;;;5059431;28;19909;-52
2021/06/22 04:30:13;;;;;;;;;;;12.60;99.90;;;;;;5063904;28;19954;-48
2021/06/22 04:32:38;;;;;;;;;;;12.60;99.90;;;;;;5065102;28;20359;-51
2021/06/22 04:35:04;;;;;;;;;;;12.60;99.90;;;;;;5062549;28;19996;-50
2021/06/22 04:37:30;;;;;;;;;;;12.70;99.90;;;;;;5065175;28;19959;-49
2021/06/22 04:39:55;;;;;;;;;;;12.70;99.90;;;;;;5063409;28;19944;-50
2021/06/22 04:42:21;;;;;;;;;;;12.70;99.90;;;;;;5065007;28;19908;-49
2021/06/22 04:44:47;;;;;;;;;;;12.70;99.90;;;;;;5064299;28;20379;-54
2021/06/22 04:47:12;;;;;;;;;;;12.70;99.90;;;;;;5064739;28;19917;-51
2021/06/22 04:49:37;;;;;;;;;;;12.80;99.90;;;;;;5065270;28;19912;-48
2021/06/22 04:52:03;;;;;;;;;;;12.80;99.90;;;;;;5062418;28;20295;-51
2021/06/22 04:54:29;;;;;;;;;;;12.80;99.90;;;;;;5064978;28;19912;-53
2021/06/22 04:56:54;;;;;;;;;;;12.70;99.90;;;;;;5063412;28;19954;-51
2021/06/22 04:59:20;;;;;;;;;;;12.70;99.90;;;;;;5046796;28;19974;-49
2021/06/22 05:01:45;;;;;;;;;;;12.70;99.90;;;;;;5064410;28;19915;-50
2021/06/22 05:04:12;;;;;;;;;;;12.70;99.90;;;;;;5064283;28;20275;-51
2021/06/22 05:06:38;;;;;;;;;;;12.70;99.90;;;;;;5064689;28;19940;-49
2021/06/22 05:09:03;;;;;;;;;;;12.70;99.90;;;;;;5062159;28;20328;-53
2021/06/22 05:11:29;;;;;;;;;;;12.70;99.90;;;;;;5064608;28;19970;-52
2021/06/22 05:13:56;;;;;;;;;;;12.70;99.90;;;;;;5063176;28;19908;-50
2021/06/22 05:16:22;;;;;;;;;;;12.70;99.90;;;;;;5064297;28;19915;-51
2021/06/22 05:18:48;;;;;;;;;;;12.60;99.90;;;;;;5064375;28;19908;-52
2021/06/22 05:21:13;;;;;;;;;;;12.60;99.90;;;;;;5064492;28;19915;-53
2021/06/22 05:23:39;;;;;;;;;;;12.60;99.90;;;;;;5064382;28;20402;-51
2021/06/22 05:26:05;;;;;;;;;;;12.70;99.90;;;;;;5061699;28;19913;-48
2021/06/22 05:28:30;;;;;;;;;;;12.70;99.90;;;;;;5064223;28;19909;-50
2021/06/22 05:30:56;;;;;;;;;;;12.70;99.90;;;;;;5045033;28;19909;-52
2021/06/22 05:33:21;;;;;;;;;;;12.70;99.90;;;;;;5060324;28;19916;-52
2021/06/22 05:35:47;;;;;;;;;;;12.70;99.90;;;;;;5066139;28;19955;-52
2021/06/22 05:38:12;;;;;;;;;;;12.70;99.90;;;;;;5060398;28;20401;-53
2021/06/22 05:40:38;;;;;;;;;;;12.80;99.90;;;;;;5065323;28;19912;-54
2021/06/22 05:43:03;;;;;;;;;;;12.80;99.90;;;;;;5043557;28;19915;-54
2021/06/22 05:45:29;;;;;;;;;;;12.90;99.90;;;;;;5065336;28;19912;-52
2021/06/22 05:47:54;;;;;;;;;;;12.90;99.90;;;;;;5063442;28;20306;-53
2021/06/22 05:50:20;;;;;;;;;;;13.00;99.90;;;;;;5060581;28;19999;-55
2021/06/22 05:52:46;;;;;;;;;;;13.10;99.90;;;;;;5066079;28;20306;-54
2021/06/22 05:55:18;;;;;;;;;;;13.20;99.90;;;;;;5060700;28;19916;-50
2021/06/22 05:57:44;;;;;;;;;;;13.30;99.90;;;;;;5066703;28;19912;-54
2021/06/22 06:00:11;;;;;;;;;;;13.50;99.90;;;;;;5060383;28;19909;-51
2021/06/22 06:02:36;;;;;;;;;;;13.60;99.90;;;;;;5048289;28;19915;-55
2021/06/22 06:05:02;;;;;;;;;;;13.60;99.90;;;;;;5061200;28;20384;-53
2021/06/22 06:07:29;;;;;;;;;;;13.70;99.90;;;;;;5060143;28;19909;-50
2021/06/22 06:09:54;;;;;;;;;;;13.70;99.90;;;;;;5066020;28;19935;-50
2021/06/22 06:12:20;;;;;;;;;;;13.80;99.90;;;;;;5059907;28;19923;-52
2021/06/22 06:14:45;;;;;;;;;;;13.90;99.90;;;;;;5066257;28;19948;-53
2021/06/22 06:17:11;;;;;;;;;;;13.90;99.90;;;;;;5060279;28;20345;-50
2021/06/22 06:19:36;;;;;;;;;;;14.10;99.90;;;;;;5066316;28;19913;-47
2021/06/22 06:22:02;;;;;;;;;;;14.30;99.90;;;;;;5061777;28;19909;-50
2021/06/22 06:24:27;;;;;;;;;;;14.40;99.90;;;;;;5041520;28;19920;-51
2021/06/22 06:27:01;;;;;;;;;;;14.40;99.90;;;;;;5059672;28;19916;-48
2021/06/22 06:29:34;;;;;;;;;;;14.50;99.90;;;;;;5060714;28;19909;-52
2021/06/22 06:32:00;;;;;;;;;;;14.50;99.90;;;;;;5061096;28;19916;-52
2021/06/22 06:34:25;;;;;;;;;;;14.40;99.90;;;;;;5062585;28;20291;-50
2021/06/22 06:36:51;;;;;;;;;;;14.30;99.90;;;;;;5044686;28;19908;-53
2021/06/22 06:39:16;;;;;;;;;;;14.40;99.90;;;;;;5059457;28;19913;-49
2021/06/22 06:41:42;;;;;;;;;;;14.50;99.90;;;;;;5059478;28;19917;-51
2021/06/22 06:44:07;;;;;;;;;;;14.40;99.90;;;;;;5065553;28;19981;-49
2021/06/22 06:46:33;;;;;;;;;;;14.30;99.90;;;;;;5040969;28;19940;-52
2021/06/22 06:48:59;;;;;;;;;;;14.30;99.90;;;;;;5065949;28;20124;-50
2021/06/22 06:51:24;;;;;;;;;;;14.40;99.90;;;;;;5058016;28;20270;-48
2021/06/22 06:53:50;;;;;;;;;;;14.50;99.90;;;;;;5067437;28;19915;-50
2021/06/22 06:56:15;;;;;;;;;;;14.80;99.90;;;;;;5058926;28;20445;-50
2021/06/22 06:58:41;;;;;;;;;;;14.90;99.90;;;;;;5058991;28;19992;-51
2021/06/22 07:01:06;;;;;;;;;;;15.00;99.90;;;;;;5065182;28;19912;-53
2021/06/22 07:03:33;;;;;;;;;;;15.10;99.90;;;;;;5058403;28;19944;-51
2021/06/22 07:05:59;;;;;;;;;;;15.20;99.90;;;;;;5066343;28;20325;-53
2021/06/22 07:08:24;;;;;;;;;;;15.50;99.90;;;;;;5058755;28;19908;-53
2021/06/22 07:10:50;;;;;;;;;;;15.70;99.90;;;;;;5058763;28;19908;-53
2021/06/22 07:13:16;;;;;;;;;;;15.80;99.90;;;;;;5046977;28;19908;-50
2021/06/22 07:15:42;;;;;;;;;;;16.10;99.90;;;;;;5058636;28;20433;-50
2021/06/22 07:18:08;;;;;;;;;;;16.10;99.90;;;;;;5065796;28;19913;-53
2021/06/22 07:20:33;;;;;;;;;;;16.20;99.90;;;;;;5058938;28;19919;-54
2021/06/22 07:22:59;;;;;;;;;;;16.20;99.90;;;;;;5066914;28;19908;-52
2021/06/22 07:25:27;;;;;;;;;;;16.20;99.90;;;;;;5058276;28;20322;-50
2021/06/22 07:27:53;;;;;;;;;;;16.10;99.90;;;;;;5059220;28;19908;-54
2021/06/22 07:30:20;;;;;;;;;;;16.00;99.90;;;;;;5064181;28;20255;-53
2021/06/22 07:32:45;;;;;;;;;;;16.00;99.90;;;;;;5058080;28;20414;-54
2021/06/22 07:35:11;;;;;;;;;;;16.00;99.90;;;;;;5065528;28;19940;-51
2021/06/22 07:37:37;;;;;;;;;;;16.20;99.90;;;;;;5058283;28;19908;-55
2021/06/22 07:40:03;;;;;;;;;;;16.40;99.90;;;;;;5060267;28;19908;-52
2021/06/22 07:42:29;;;;;;;;;;;16.50;99.90;;;;;;5062552;28;20596;-49
2021/06/22 07:44:54;;;;;;;;;;;16.70;99.90;;;;;;5058016;28;19920;-55
2021/06/22 07:47:19;;;;;;;;;;;16.90;99.90;;;;;;5058583;28;19920;-52
2021/06/22 07:49:45;;;;;;;;;;;17.00;99.90;;;;;;5058520;28;20406;-51
2021/06/22 07:52:10;;;;;;;;;;;17.00;99.90;;;;;;5061240;28;19916;-54
2021/06/22 07:54:36;;;;;;;;;;;16.80;99.90;;;;;;5060897;28;19913;-53
2021/06/22 07:57:02;;;;;;;;;;;16.70;99.90;;;;;;5059948;28;19908;-51
2021/06/22 07:59:27;;;;;;;;;;;16.70;99.90;;;;;;5062856;28;19936;-51
2021/06/22 08:01:53;;;;;;;;;;;16.80;99.90;;;;;;5058442;28;19913;-53
2021/06/22 08:04:19;;;;;;;;;;;16.60;99.90;;;;;;5068148;28;20390;-48
2021/06/22 08:06:45;;;;;;;;;;;16.40;99.90;;;;;;5061982;28;19908;-49
2021/06/22 08:09:10;;;;;;;;;;;16.30;99.90;;;;;;5065390;28;19915;-53
2021/06/22 08:11:36;;;;;;;;;;;16.10;99.90;;;;;;5064714;28;19909;-48
2021/06/22 08:14:02;;;;;;;;;;;16.10;99.90;;;;;;5063941;28;19940;-51
2021/06/22 08:16:27;;;;;;;;;;;16.10;99.90;;;;;;5048664;28;19915;-49
2021/06/22 08:18:53;;;;;;;;;;;16.10;99.90;;;;;;5062958;28;19909;-53
2021/06/22 08:21:18;;;;;;;;;;;16.20;99.90;;;;;;5069133;28;19913;-47
2021/06/22 08:23:44;;;;;;;;;;;16.20;99.90;;;;;;5061870;28;20007;-50
2021/06/22 08:26:10;;;;;;;;;;;16.30;99.90;;;;;;5064433;28;19966;-53
2021/06/22 08:28:36;;;;;;;;;;;16.30;99.90;;;;;;5064572;28;19913;-53
2021/06/22 08:31:02;;;;;;;;;;;16.30;99.90;;;;;;5063367;28;19916;-52
2021/06/22 08:33:27;;;;;;;;;;;16.30;99.90;;;;;;5048336;28;20101;-49
2021/06/22 08:35:53;;;;;;;;;;;16.20;99.90;;;;;;5061729;28;19947;-50
2021/06/22 08:38:18;;;;;;;;;;;16.30;99.90;;;;;;5065190;28;19919;-51
2021/06/22 08:40:45;;;;;;;;;;;16.30;99.90;;;;;;5063745;28;19916;-52
2021/06/22 08:43:12;;;;;;;;;;;16.40;99.90;;;;;;5064629;28;19912;-46
2021/06/22 08:45:38;;;;;;;;;;;16.50;99.90;;;;;;5064621;28;19913;-51
2021/06/22 08:48:05;;;;;;;;;;;16.80;99.90;;;;;;5063967;28;19908;-52
2021/06/22 08:50:31;;;;;;;;;;;17.10;99.90;;;;;;5064790;28;19995;-51
2021/06/22 08:52:56;;;;;;;;;;;17.50;99.90;;;;;;5062337;28;20009;-50
2021/06/22 08:55:25;;;;;;;;;;;18.00;99.90;;;;;;5046844;28;20034;-51
2021/06/22 08:57:52;;;;;;;;;;;18.40;99.90;;;;;;5062872;28;20011;-49
2021/06/22 09:00:18;;;;;;;;;;;18.80;99.90;;;;;;5064460;28;20397;-48
2021/06/22 09:02:43;;;;;;;;;;;18.70;99.90;;;;;;5064506;28;20007;-58
2021/06/22 09:05:09;;;;;;;;;;;18.70;99.90;;;;;;5063364;28;19982;-52
2021/06/22 09:07:40;;;;;;;;;;;18.30;99.90;;;;;;5064755;28;19908;-47
2021/06/22 09:10:06;;;;;;;;;;;17.80;99.90;;;;;;5061912;28;19909;-47
2021/06/22 09:12:31;;;;;;;;;;;17.60;99.90;;;;;;5064389;28;19909;-50
2021/06/22 09:14:57;;;;;;;;;;;17.30;99.90;;;;;;5061555;28;20287;-49
2021/06/22 09:17:32;;;;;;;;;;;17.10;99.90;;;;;;5065043;28;19962;-47
2021/06/22 09:19:57;;;;;;;;;;;16.90;99.90;;;;;;5045950;28;19922;-50
2021/06/22 09:22:27;;;;;;;;;;;16.90;99.90;;;;;;5064449;28;20029;-49
2021/06/22 09:25:00;;;;;;;;;;;17.10;99.90;;;;;;5045380;28;19912;-48
2021/06/22 09:27:44;;;;;;;;;;;17.40;99.90;;;;;;5045471;28;19958;-51
2021/06/22 09:30:10;;;;;;;;;;;17.70;99.90;;;;;;5061155;28;19931;-48
2021/06/22 09:32:35;;;;;;;;;;;17.50;99.90;;;;;;5065110;28;20432;-53
2021/06/22 09:35:22;;;;;;;;;;;17.70;99.90;;;;;;5062172;28;19908;-54
2021/06/22 09:37:51;;;;;;;;;;;17.90;99.90;;;;;;5041192;28;19909;-49
2021/06/22 09:40:26;;;;;;;;;;;17.90;99.90;;;;;;5064152;28;20350;-50
2021/06/22 09:42:53;;;;;;;;;;;18.00;99.90;;;;;;5061997;28;19909;-51
2021/06/22 09:45:20;;;;;;;;;;;18.00;99.90;;;;;;5063933;28;19916;-52
2021/06/22 09:47:46;;;;;;;;;;;18.00;99.90;;;;;;5063900;28;19966;-51
2021/06/22 09:50:33;;;;;;;;;;;17.90;99.90;;;;;;5063624;28;19908;-55
2021/06/22 09:53:17;;;;;;;;;;;18.00;99.90;;;;;;5061297;28;20391;-50
2021/06/22 09:55:43;;;;;;;;;;;18.20;99.90;;;;;;5063857;28;19913;-53
2021/06/22 09:58:08;;;;;;;;;;;18.40;99.90;;;;;;5062221;28;20298;-50
2021/06/22 10:00:37;;;;;;;;;;;18.60;99.90;;;;;;5045785;28;20301;-45
2021/06/22 10:03:03;;;;;;;;;;;18.70;99.90;;;;;;5062785;28;19971;-49
2021/06/22 10:05:29;;;;;;;;;;;18.90;99.90;;;;;;5063580;28;19913;-49
2021/06/22 10:07:58;;;;;;;;;;;18.90;99.90;;;;;;5062712;28;19912;-53
2021/06/22 10:10:34;;;;;;;;;;;19.10;99.90;;;;;;5044667;28;19912;-47
2021/06/22 10:12:59;;;;;;;;;;;19.00;99.90;;;;;;5061109;28;20042;-50
2021/06/22 10:15:25;;;;;;;;;;;19.10;99.90;;;;;;5063188;28;19966;-47
2021/06/22 10:17:50;;;;;;;;;;;19.00;99.90;;;;;;5063446;28;19909;-49
2021/06/22 10:20:16;;;;;;;;;;;19.10;99.90;;;;;;5063040;28;19912;-51
2021/06/22 10:22:43;;;;;;;;;;;18.70;99.90;;;;;;5063246;28;19924;-51
2021/06/22 10:25:10;;;;;;;;;;;18.50;99.90;;;;;;5059935;28;19966;-51
2021/06/22 10:27:36;;;;;;;;;;;18.30;99.90;;;;;;5063845;28;19910;-51
2021/06/22 10:30:03;;;;;;;;;;;18.30;99.90;;;;;;5061278;28;19915;-53
2021/06/22 10:32:29;;;;;;;;;;;18.20;99.90;;;;;;5063650;28;19919;-52
2021/06/22 10:34:56;;;;;;;;;;;18.10;99.90;;;;;;5062143;28;19908;-49
2021/06/22 10:37:28;;;;;;;;;;;18.10;99.90;;;;;;5041578;28;20275;-52
2021/06/22 10:40:01;;;;;;;;;;;18.30;99.90;;;;;;5060235;28;20307;-52
2021/06/22 10:42:38;;;;;;;;;;;18.20;99.90;;;;;;5064203;28;19923;-46
2021/06/22 10:45:04;;;;;;;;;;;18.10;99.90;;;;;;5061249;28;20003;-52
2021/06/22 10:47:31;;;;;;;;;;;18.20;99.90;;;;;;5064714;28;20000;-47
2021/06/22 10:49:56;;;;;;;;;;;18.40;99.90;;;;;;5060657;28;19916;-48
2021/06/22 10:52:40;;;;;;;;;;;18.60;99.90;;;;;;5062266;28;19920;-51
2021/06/22 10:55:06;;;;;;;;;;;18.70;99.90;;;;;;5088186;22;19940;-60
2021/06/22 10:57:51;;;;;;;;;;;18.50;99.90;;;;;;5083962;28;19939;-62
2021/06/22 11:00:17;;;;;;;;;;;18.30;99.90;;;;;;5069093;28;19915;-63
2021/06/22 11:03:02;;;;;;;;;;;18.50;99.90;;;;;;5084416;28;19912;-62
2021/06/22 11:05:28;;;;;;;;;;;18.80;99.90;;;;;;5075379;28;20438;-62
2021/06/22 11:08:12;;;;;;;;;;;19.30;99.90;;;;;;5084995;28;19908;-60
2021/06/22 11:10:38;;;;;;;;;;;19.60;99.90;;;;;;5083729;28;20294;-61
2021/06/22 11:13:04;;;;;;;;;;;19.40;99.90;;;;;;5084653;28;19981;-58
2021/06/22 11:15:53;;;;;;;;;;;19.40;99.90;;;;;;5083044;28;19908;-60
2021/06/22 11:18:18;;;;;;;;;;;19.20;99.90;;;;;;5077231;28;19908;-58
2021/06/22 11:21:04;;;;;;;;;;;19.00;99.90;;;;;;5086121;28;19908;-59
2021/06/22 11:23:30;;;;;;;;;;;19.10;99.90;;;;;;5063710;28;20286;-62
2021/06/22 11:26:01;;;;;;;;;;;19.30;99.90;;;;;;5080070;28;19912;-58
2021/06/22 11:28:26;;;;;;;;;;;19.60;99.90;;;;;;5086949;28;19991;-60
2021/06/22 11:30:54;;;;;;;;;;;19.30;99.90;;;;;;5080427;28;19948;-60
2021/06/22 11:33:28;;;;;;;;;;;19.10;99.90;;;;;;5089349;28;19908;-58
2021/06/22 11:36:12;;;;;;;;;;;19.10;99.90;;;;;;5078415;28;19909;-59
2021/06/22 11:38:38;;;;;;;;;;;19.30;99.90;;;;;;5085101;28;19908;-57
2021/06/22 11:41:10;;;;;;;;;;;19.40;99.90;;;;;;5081472;28;20368;-63
2021/06/22 11:43:36;;;;;;;;;;;19.50;98.20;;;;;;5087345;28;19953;-59
2021/06/22 11:46:20;;;;;;;;;;;19.60;99.60;;;;;;5083181;28;19916;-61
2021/06/22 11:48:55;;;;;;;;;;;19.80;99.70;;;;;;5088083;28;20348;-60
2021/06/22 11:51:40;;;;;;;;;;;20.00;98.40;;;;;;5059390;28;19917;-61
2021/06/22 11:54:05;;;;;;;;;;;19.80;99.10;;;;;;5086774;28;19916;-58
2021/06/22 11:56:31;;;;;;;;;;;19.70;99.70;;;;;;5080497;28;19915;-60
2021/06/22 11:58:59;;;;;;;;;;;19.80;99.90;;;;;;5078228;28;19920;-64
2021/06/22 12:01:25;;;;;;;;;;;20.10;99.90;;;;;;5065069;28;19930;-61
2021/06/22 12:03:54;;;;;;;;;;;20.40;99.40;;;;;;5086734;28;19908;-60
2021/06/22 12:06:23;;;;;;;;;;;20.50;99.10;;;;;;5085142;28;20097;-61
2021/06/22 12:08:49;;;;;;;;;;;20.50;99.90;;;;;;5079396;28;19909;-62
2021/06/22 12:11:30;;;;;;;;;;;20.60;97.20;;;;;;5088501;28;19909;-62
2021/06/22 12:13:55;;;;;;;;;;;20.50;97.80;;;;;;5062709;28;20358;-63
2021/06/22 12:16:27;;;;;;;;;;;20.60;98.70;;;;;;5088990;28;19961;-60
2021/06/22 12:19:04;;;;;;;;;;;20.70;99.60;;;;;;5081454;28;20017;-62
2021/06/22 12:21:31;;;;;;;;;;;20.70;99.20;;;;;;5089932;28;19908;-63
2021/06/22 12:24:12;;;;;;;;;;;20.90;98.90;;;;;;5064721;28;20037;-61
2021/06/22 12:26:39;;;;;;;;;;;21.20;97.40;;;;;;5082289;28;19919;-62
2021/06/22 12:29:15;;;;;;;;;;;21.30;96.90;;;;;;5084330;28;19908;-62
2021/06/22 12:31:47;;;;;;;;;;;21.40;97.00;;;;;;5071995;28;19919;-61
2021/06/22 12:34:13;;;;;;;;;;;21.30;94.70;;;;;;5087338;28;19955;-61
2021/06/22 12:36:39;;;;;;;;;;;20.60;96.80;;;;;;5082886;28;19958;-58
2021/06/22 12:39:06;;;;;;;;;;;20.10;95.40;;;;;;5081583;28;20528;-60
2021/06/22 12:41:31;;;;;;;;;;;19.70;98.10;;;;;;5082519;28;19908;-59
2021/06/22 12:43:57;;;;;;;;;;;19.70;97.70;;;;;;5085986;28;19916;-61
2021/06/22 12:46:23;;;;;;;;;;;19.60;96.90;;;;;;5082389;28;19912;-62
2021/06/22 12:48:56;;;;;;;;;;;19.60;96.60;;;;;;5087060;28;19908;-62
2021/06/22 12:51:21;;;;;;;;;;;19.90;97.70;;;;;;5065337;28;19909;-63
2021/06/22 12:53:49;;;;;;;;;;;20.30;97.40;;;;;;5088312;28;19969;-62
2021/06/22 12:56:14;;;;;;;;;;;20.50;95.90;;;;;;5086669;28;19912;-62
2021/06/22 12:58:43;;;;;;;;;;;20.50;95.70;;;;;;5087965;28;19915;-62
2021/06/22 13:01:24;;;;;;;;;;;20.50;95.40;;;;;;5088557;28;19927;-59
2021/06/22 13:03:50;;;;;;;;;;;20.40;94.40;;;;;;5089633;28;19991;-62
2021/06/22 13:06:23;;;;;;;;;;;20.50;96.00;;;;;;5089441;28;19912;-62
2021/06/22 13:08:51;;;;;;;;;;;20.50;94.70;;;;;;5082778;28;19916;-64
2021/06/22 13:11:22;;;;;;;;;;;20.50;95.00;;;;;;5092632;28;20362;-64
2021/06/22 13:13:48;;;;;;;;;;;20.50;95.80;;;;;;5080052;28;19916;-63
2021/06/22 13:16:14;;;;;;;;;;;20.80;96.40;;;;;;5093801;28;19908;-63
2021/06/22 13:19:00;;;;;;;;;;;20.90;94.60;;;;;;5084999;28;19939;-64
2021/06/22 13:21:35;;;;;;;;;;;21.00;94.50;;;;;;5080463;28;19996;-63
2021/06/22 13:24:00;;;;;;;;;;;21.00;95.00;;;;;;5084671;28;19915;-61
2021/06/22 13:26:26;;;;;;;;;;;21.00;94.80;;;;;;5085097;28;19912;-57
2021/06/22 13:28:58;;;;;;;;;;;21.20;96.40;;;;;;5086929;28;20393;-62
2021/06/22 13:31:25;;;;;;;;;;;21.30;94.60;;;;;;5086832;28;19908;-63
2021/06/22 13:33:59;;;;;;;;;;;21.20;93.10;;;;;;5089519;28;19908;-62
2021/06/22 13:36:24;;;;;;;;;;;21.30;94.70;;;;;;5087428;28;19991;-62
2021/06/22 13:39:00;;;;;;;;;;;21.30;93.70;;;;;;5091509;28;20005;-63
2021/06/22 13:41:26;;;;;;;;;;;21.40;94.20;;;;;;5089825;28;19908;-61
2021/06/22 13:43:51;;;;;;;;;;;21.50;94.70;;;;;;5086396;28;19915;-62
2021/06/22 13:46:21;;;;;;;;;;;21.30;92.80;;;;;;5090214;28;19919;-61
2021/06/22 13:48:48;;;;;;;;;;;20.90;91.80;;;;;;5087023;28;19977;-59
2021/06/22 13:51:21;;;;;;;;;;;20.40;93.30;;;;;;5081657;28;20400;-61
2021/06/22 13:53:48;;;;;;;;;;;20.30;93.80;;;;;;5087838;28;19951;-60
2021/06/22 13:56:16;;;;;;;;;;;20.30;94.10;;;;;;5075653;28;20532;-61
2021/06/22 13:58:41;;;;;;;;;;;20.60;93.60;;;;;;5089048;28;20042;-59
2021/06/22 14:01:08;;;;;;;;;;;20.90;94.50;;;;;;5085034;28;19940;-62
2021/06/22 14:03:33;;;;;;;;;;;21.10;94.50;;;;;;5089843;28;20306;-59
2021/06/22 14:05:59;;;;;;;;;;;21.10;91.40;;;;;;5085483;28;19923;-58
2021/06/22 14:08:25;;;;;;;;;;;20.40;92.60;;;;;;5084025;28;19915;-62
2021/06/22 14:10:52;;;;;;;;;;;20.20;94.60;;;;;;5069900;28;20020;-62
2021/06/22 14:13:18;;;;;;;;;;;20.50;95.50;;;;;;5084292;28;20409;-62
2021/06/22 14:15:44;;;;;;;;;;;20.70;95.10;;;;;;5088433;28;19909;-62